Time;durP1;ratioP1;P1;durP2;ratioP2;P2;SDS_P1;SDS_P2;PMS_P1;PMS_P2;Temp;Humidity;BMP_temperature;BMP_pressure;BME280_temperature;BME280_humidity;BME280_pressure;Samples;Min_cycle;Max_cycle;Signal;HPM_P1;HPM_P2
2022/03/25 00:00:25;;;;;;;;;;;;;;;3.44;66.59;100682.44;5010441;28;19925;-82
2022/03/25 00:02:51;;;;;;;;;;;;;;;3.48;66.68;100685.91;5000888;28;19924;-83
2022/03/25 00:05:16;;;;;;;;;;;;;;;3.51;66.74;100683.31;5010773;28;19928;-83
2022/03/25 00:07:41;;;;;;;;;;;;;;;3.51;66.91;100683.31;5010675;28;19925;-83
2022/03/25 00:10:07;;;;;;;;;;;;;;;3.53;66.93;100681.59;5000869;28;20249;-80
2022/03/25 00:12:32;;;;;;;;;;;;;;;3.51;66.88;100683.31;5009206;28;19960;-82
2022/03/25 00:14:58;;;;;;;;;;;;;;;3.55;66.72;100685.06;5010375;28;19924;-81
2022/03/25 00:17:24;;;;;;;;;;;;;;;3.54;66.74;100683.31;5010169;28;19972;-82
2022/03/25 00:19:49;;;;;;;;;;;;;;;3.56;66.79;100687.69;5010755;28;20284;-83
2022/03/25 00:22:14;;;;;;;;;;;;;;;3.58;66.77;100685.06;5010686;28;19917;-83
2022/03/25 00:24:40;;;;;;;;;;;;;;;3.57;66.65;100683.31;5000516;28;19918;-83
2022/03/25 00:27:05;;;;;;;;;;;;;;;3.60;66.72;100681.56;4999862;28;20372;-82
2022/03/25 00:29:30;;;;;;;;;;;;;;;3.62;66.54;100686.78;5000639;28;19918;-83
2022/03/25 00:31:55;;;;;;;;;;;;;;;3.60;66.47;100688.56;5011046;28;19922;-83
2022/03/25 00:34:21;;;;;;;;;;;;;;;3.62;66.53;100681.56;5009872;28;20440;-83
2022/03/25 00:36:46;;;;;;;;;;;;;;;3.61;66.43;100679.84;4993736;28;20329;-82
2022/03/25 00:39:11;;;;;;;;;;;;;;;3.64;66.53;100691.19;5000515;28;19922;-83
2022/03/25 00:41:37;;;;;;;;;;;;;;;3.66;66.44;100678.06;5010470;28;20003;-82
2022/03/25 00:44:07;;;;;;;;;;;;;;;3.66;66.23;100678.06;4999727;28;19957;-82
2022/03/25 00:46:32;;;;;;;;;;;;;;;3.66;66.42;100683.31;4998093;28;20004;-82
2022/03/25 00:48:57;;;;;;;;;;;;;;;3.67;66.35;100677.22;5000104;28;20012;-82
2022/03/25 00:51:23;;;;;;;;;;;;;;;3.78;66.99;100677.19;5000383;28;19925;-82
2022/03/25 00:53:48;;;;;;;;;;;;;;;3.99;68.59;100677.16;5000501;28;20170;-82
2022/03/25 10:14:27;;;;;;;;;;;;;;;3.13;83.40;100678.88;5116302;27;19965;-82
2022/03/25 10:16:53;;;;;;;;;;;;;;;4.25;84.76;100668.38;5120095;27;19971;-83
2022/03/25 10:19:19;;;;;;;;;;;;;;;3.57;83.46;100675.44;5115735;27;19951;-83
2022/03/25 10:21:55;;;;;;;;;;;;;;;3.05;84.26;100679.75;5118404;27;20038;-81
2022/03/25 10:24:41;;;;;;;;;;;;;;;2.79;83.73;100673.56;5118004;27;20278;-81
2022/03/25 10:27:07;;;;;;;;;;;;;;;2.67;82.72;100677.91;5117933;27;19925;-81
2022/03/25 10:29:32;;;;;;;;;;;;;;;2.61;81.78;100672.66;5118727;27;20018;-82
2022/03/25 10:32:05;;;;;;;;;;;;;;;2.57;80.99;100673.53;5118001;27;20337;-82
2022/03/25 10:34:30;;;;;;;;;;;;;;;2.54;80.80;100674.38;5119014;28;20007;-81
2022/03/25 10:37:03;;;;;;;;;;;;;;;2.54;80.54;100674.38;5119430;27;20010;-81
2022/03/25 10:39:29;;;;;;;;;;;;;;;2.52;80.03;100667.38;5118146;27;19951;-82
2022/03/25 10:41:59;;;;;;;;;;;;;;;2.52;79.76;100663.03;5119238;27;20009;-81
2022/03/25 10:44:38;;;;;;;;;;;;;;;2.55;79.43;100667.38;5118326;27;19920;-82
2022/03/25 10:47:15;;;;;;;;;;;;;;;2.53;79.03;100669.13;5118265;27;20052;-81
2022/03/25 10:49:46;;;;;;;;;;;;;;;2.53;78.93;100656.03;5119722;27;20389;-81
2022/03/25 10:52:27;;;;;;;;;;;;;;;2.51;78.83;100663.88;5118252;27;19916;-81
2022/03/25 10:55:16;;;;;;;;;;;;;;;2.53;78.49;100663.91;5119146;27;19997;-82
2022/03/25 10:57:58;;;;;;;;;;;;;;;2.51;78.02;100657.78;5124073;27;19916;-81
2022/03/25 11:00:24;;;;;;;;;;;;;;;2.49;77.69;100659.50;5118296;27;19919;-82
2022/03/25 11:02:53;;;;;;;;;;;;;;;2.48;77.87;100650.78;5118819;27;19916;-82
2022/03/25 11:05:18;;;;;;;;;;;;;;;2.48;78.16;100648.19;5119232;27;19922;-82
2022/03/25 11:07:45;;;;;;;;;;;;;;;2.53;77.99;100648.19;5119379;27;20354;-82
2022/03/25 11:10:14;;;;;;;;;;;;;;;2.54;77.70;100649.97;5119144;27;19943;-82
2022/03/25 11:12:43;;;;;;;;;;;;;;;2.60;77.80;100649.09;5118613;27;19931;-82
2022/03/25 11:15:27;;;;;;;;;;;;;;;2.64;77.52;100636.03;5117400;27;19924;-82
2022/03/25 11:17:52;;;;;;;;;;;;;;;2.65;77.50;100647.34;5118287;27;20271;-82
2022/03/25 11:20:19;;;;;;;;;;;;;;;2.64;77.48;100643.88;5118654;28;19997;-84
2022/03/25 11:23:05;;;;;;;;;;;;;;;2.72;77.65;100639.53;5119103;27;19920;-82
2022/03/25 11:25:33;;;;;;;;;;;;;;;2.72;77.28;100650.00;5095570;28;19916;-82
2022/03/25 11:28:00;;;;;;;;;;;;;;;2.70;77.03;100641.28;5105022;28;20297;-81
2022/03/25 11:30:30;;;;;;;;;;;;;;;2.69;77.23;100638.66;5103986;28;19931;-81
2022/03/25 11:32:55;;;;;;;;;;;;;;;2.76;77.15;100634.31;5104559;28;19924;-82
2022/03/25 11:35:21;;;;;;;;;;;;;;;2.73;77.00;100638.66;5105123;28;20326;-82
2022/03/25 11:37:46;;;;;;;;;;;;;;;2.75;76.64;100636.06;5104988;28;19919;-82
2022/03/25 11:40:15;;;;;;;;;;;;;;;2.73;76.60;100633.44;5104730;28;19942;-82
2022/03/25 11:42:41;;;;;;;;;;;;;;;2.76;76.63;100631.69;5104578;28;19916;-82
2022/03/25 11:45:19;;;;;;;;;;;;;;;2.77;76.53;100630.84;5103049;28;19993;-82
2022/03/25 11:47:44;;;;;;;;;;;;;;;3.71;76.07;100623.03;5103358;28;20283;-83
2022/03/25 11:50:42;;;;;;;;;;;;;;;3.18;76.69;100616.94;5098461;28;19919;-83
2022/03/25 11:53:10;;;;;;;;;;;;;;;2.97;77.27;100616.03;5090916;28;19924;-83
2022/03/25 11:55:55;;;;;;;;;;;;;;;2.95;77.33;100623.00;5104238;28;20286;-83
2022/03/25 11:58:21;;;;;;;;;;;;;;;2.94;77.04;100618.66;5103533;28;19920;-83
2022/03/25 12:00:51;;;;;;;;;;;;;;;2.91;77.04;100618.66;5102052;28;19939;-83
2022/03/25 12:03:17;;;;;;;;;;;;;;;2.96;77.00;100606.44;5102153;28;19916;-83
2022/03/25 12:06:01;;;;;;;;;;;;;;;2.96;76.62;100611.66;5102865;28;20007;-83
2022/03/25 12:08:31;;;;;;;;;;;;;;;2.90;76.58;100606.41;5103575;28;19961;-83
2022/03/25 12:10:57;;;;;;;;;;;;;;;2.98;76.71;100606.44;5101706;28;19919;-83
2022/03/25 12:13:23;;;;;;;;;;;;;;;2.98;76.45;100604.69;5103696;28;19920;-83
2022/03/25 12:15:52;;;;;;;;;;;;;;;2.97;76.33;100600.34;5103241;28;19970;-82
2022/03/25 12:18:36;;;;;;;;;;;;;;;2.95;75.83;100602.06;5103715;28;20367;-83
2022/03/25 12:21:01;;;;;;;;;;;;;;;2.94;75.64;100591.59;5103742;28;19916;-83
2022/03/25 12:23:27;;;;;;;;;;;;;;;2.93;75.90;100600.31;5104266;28;19915;-83
2022/03/25 12:25:52;;;;;;;;;;;;;;;2.92;76.07;100599.47;5102701;28;20374;-83
2022/03/25 12:28:24;;;;;;;;;;;;;;;2.96;76.23;100595.94;5103577;28;19920;-83
2022/03/25 12:30:50;;;;;;;;;;;;;;;3.02;75.75;100590.72;5101579;28;19969;-83
2022/03/25 12:33:18;;;;;;;;;;;;;;;2.99;75.58;100585.50;5104046;28;19926;-83
2022/03/25 12:35:44;;;;;;;;;;;;;;;2.98;75.54;100586.34;5102871;28;19916;-83
2022/03/25 12:38:20;;;;;;;;;;;;;;;3.02;75.58;100585.50;5103242;28;20014;-83
2022/03/25 12:40:46;;;;;;;;;;;;;;;3.09;75.36;100578.50;5103698;28;19920;-83
2022/03/25 12:43:11;;;;;;;;;;;;;;;3.11;75.23;100581.13;5101904;28;19920;-83
2022/03/25 12:45:41;;;;;;;;;;;;;;;3.10;74.85;100567.16;5102508;28;20377;-83
2022/03/25 12:48:24;;;;;;;;;;;;;;;3.05;74.84;100572.41;5102013;28;19951;-83
2022/03/25 12:50:54;;;;;;;;;;;;;;;3.22;76.47;100569.78;5097086;28;19920;-83
2022/03/25 12:53:23;;;;;;;;;;;;;;;3.47;79.05;100574.16;5117045;27;20060;-83
2022/03/25 12:55:48;;;;;;;;;;;;;;;3.49;81.26;100567.13;5104144;28;19923;-83
2022/03/25 12:58:16;;;;;;;;;;;;;;;3.51;83.23;100553.19;5102059;28;19920;-83
2022/03/25 13:00:43;;;;;;;;;;;;;;;3.48;84.89;100568.00;5101153;28;20290;-83
2022/03/25 13:03:09;;;;;;;;;;;;;;;3.41;86.38;100570.63;5103178;28;19916;-83
2022/03/25 13:05:34;;;;;;;;;;;;;;;3.36;87.45;100558.44;5103464;28;19916;-82
2022/03/25 13:08:00;;;;;;;;;;;;;;;3.33;89.05;100556.66;5101472;28;20363;-83
2022/03/25 13:10:28;;;;;;;;;;;;;;;3.26;90.03;100554.94;5102900;28;19924;-83
2022/03/25 13:12:54;;;;;;;;;;;;;;;3.26;91.44;100552.31;5101727;28;19924;-82
2022/03/25 13:15:29;;;;;;;;;;;;;;;3.25;92.70;100548.81;5101374;28;19916;-83
2022/03/25 13:17:59;;;;;;;;;;;;;;;3.31;94.87;100547.94;5101159;28;19979;-83
2022/03/25 13:20:26;;;;;;;;;;;;;;;3.58;98.12;100535.69;5102357;28;19927;-83
2022/03/25 13:22:54;;;;;;;;;;;;;;;3.80;100.00;100540.00;5101591;28;20382;-83
2022/03/25 13:25:23;;;;;;;;;;;;;;;3.95;100.00;100535.56;5102640;28;20363;-83
2022/03/25 13:27:49;;;;;;;;;;;;;;;4.05;100.00;100537.25;5102663;28;20379;-83
2022/03/25 13:30:14;;;;;;;;;;;;;;;4.17;100.00;100538.97;5101312;28;19965;-83
2022/03/25 13:32:39;;;;;;;;;;;;;;;4.24;100.00;100535.44;5102862;28;19915;-83
2022/03/25 13:35:09;;;;;;;;;;;;;;;4.28;100.00;100538.94;5103000;28;20015;-83
2022/03/25 13:37:35;;;;;;;;;;;;;;;4.36;100.00;100542.38;5102467;28;20018;-83
2022/03/25 13:40:01;;;;;;;;;;;;;;;4.43;100.00;100540.59;5102478;28;20398;-83
2022/03/25 13:42:33;;;;;;;;;;;;;;;4.48;100.00;100542.31;5101727;28;19966;-83
2022/03/25 13:45:05;;;;;;;;;;;;;;;4.52;100.00;100537.91;5100875;28;19923;-83
2022/03/25 13:47:31;;;;;;;;;;;;;;;4.55;100.00;100533.50;5102198;28;20032;-83
2022/03/25 13:50:28;;;;;;;;;;;;;;;4.55;100.00;100528.25;5102388;28;20382;-83
2022/03/25 13:53:09;;;;;;;;;;;;;;;4.60;100.00;100527.38;5078066;28;19922;-83
2022/03/25 13:55:35;;;;;;;;;;;;;;;4.67;100.00;100529.06;5101621;28;19916;-83
2022/03/25 13:58:00;;;;;;;;;;;;;;;4.68;100.00;100526.44;5102125;28;19916;-83
2022/03/25 14:00:30;;;;;;;;;;;;;;;4.67;100.00;100516.81;5100368;28;20480;-83
2022/03/25 14:02:56;;;;;;;;;;;;;;;4.71;100.00;100510.66;5102571;28;20007;-83
2022/03/25 14:05:25;;;;;;;;;;;;;;;4.77;100.00;100514.13;5101079;28;20002;-83
2022/03/25 14:07:58;;;;;;;;;;;;;;;4.77;100.00;100515.00;5102492;28;19924;-83
2022/03/25 14:10:24;;;;;;;;;;;;;;;4.80;100.00;100509.69;5135065;27;20103;-83
2022/03/25 14:12:59;;;;;;;;;;;;;;;4.83;100.00;100508.81;5101980;28;20282;-83
2022/03/25 14:15:26;;;;;;;;;;;;;;;4.88;100.00;100507.03;5098915;28;20003;-84
2022/03/25 14:17:52;;;;;;;;;;;;;;;4.87;100.00;100506.16;5100723;28;20312;-83
2022/03/25 14:20:19;;;;;;;;;;;;;;;4.89;100.00;100496.50;5102668;28;19946;-84
2022/03/25 14:22:46;;;;;;;;;;;;;;;4.93;100.00;100504.38;5102073;28;19916;-83
2022/03/25 14:25:12;;;;;;;;;;;;;;;4.93;100.00;100500.00;5101810;28;19920;-83
2022/03/25 14:27:39;;;;;;;;;;;;;;;4.91;100.00;100497.38;5101847;28;19919;-84
2022/03/25 14:30:04;;;;;;;;;;;;;;;3.87;100.00;100504.13;5099415;28;19920;-83
2022/03/25 14:32:30;;;;;;;;;;;;;;;3.52;100.00;100501.63;5099899;28;19939;-83
2022/03/25 14:34:55;;;;;;;;;;;;;;;3.42;100.00;100501.66;5100520;28;19920;-83
2022/03/25 14:37:23;;;;;;;;;;;;;;;3.32;100.00;100499.94;5101144;28;19920;-83
2022/03/25 14:39:49;;;;;;;;;;;;;;;3.17;100.00;100494.72;5102087;28;19995;-83
2022/03/25 14:42:14;;;;;;;;;;;;;;;3.13;100.00;100488.59;5099342;28;19964;-84
2022/03/25 14:44:41;;;;;;;;;;;;;;;3.07;100.00;100494.72;5095929;28;19974;-83
2022/03/25 14:47:06;;;;;;;;;;;;;;;3.09;100.00;100490.38;5100397;28;19915;-83
2022/03/25 14:49:31;;;;;;;;;;;;;;;3.07;100.00;100497.31;5102053;28;19916;-83
2022/03/25 14:51:57;;;;;;;;;;;;;;;2.94;99.36;100492.13;5101616;28;19955;-83
2022/03/25 14:54:23;;;;;;;;;;;;;;;2.88;98.81;100495.59;5099705;28;19920;-83
2022/03/25 14:56:49;;;;;;;;;;;;;;;2.87;98.45;100491.22;5099849;28;20340;-83
2022/03/25 14:59:14;;;;;;;;;;;;;;;2.82;97.77;100493.84;5102571;28;19950;-84
2022/03/25 15:01:40;;;;;;;;;;;;;;;2.81;97.05;100492.13;5102691;28;19920;-83
2022/03/25 15:04:05;;;;;;;;;;;;;;;2.72;96.63;100482.50;5103975;28;19926;-83
2022/03/25 15:06:30;;;;;;;;;;;;;;;2.76;96.35;100490.34;5105736;28;19973;-83
2022/03/25 15:08:56;;;;;;;;;;;;;;;2.70;95.82;100479.03;5105448;28;20016;-83
2022/03/25 15:11:21;;;;;;;;;;;;;;;2.69;95.75;100490.34;5105092;28;19993;-82
2022/03/25 15:13:47;;;;;;;;;;;;;;;2.70;95.31;100488.63;5105192;28;19927;-83
2022/03/25 15:16:13;;;;;;;;;;;;;;;2.72;94.69;100484.25;5104340;28;20528;-83
2022/03/25 15:18:39;;;;;;;;;;;;;;;2.64;94.23;100483.38;5105161;28;19916;-82
2022/03/25 15:21:05;;;;;;;;;;;;;;;2.54;94.01;100482.50;5105647;27;19916;-82
2022/03/25 15:23:31;;;;;;;;;;;;;;;2.61;93.79;100486.84;5103882;28;19927;-82
2022/03/25 15:25:56;;;;;;;;;;;;;;;2.57;93.10;100482.50;5104867;28;20011;-83
2022/03/25 15:28:22;;;;;;;;;;;;;;;2.50;92.63;100480.75;5105479;28;19927;-83
2022/03/25 15:36:15;;;;;;;;;;;;;;;2.49;91.20;100489.44;5105088;28;19935;-83
2022/03/25 15:38:40;;;;;;;;;;;;;;;2.49;90.84;100489.44;5105210;28;19916;-82
2022/03/25 15:41:05;;;;;;;;;;;;;;;2.41;90.29;100480.72;5103514;28;19927;-83
2022/03/25 15:43:31;;;;;;;;;;;;;;;2.45;90.24;100485.97;5104755;28;19920;-82
2022/03/25 15:45:56;;;;;;;;;;;;;;;2.37;90.25;100487.69;5103279;28;20363;-83
2022/03/25 15:48:21;;;;;;;;;;;;;;;2.34;90.17;100488.56;5103291;28;19977;-83
2022/03/25 15:50:47;;;;;;;;;;;;;;;2.38;90.11;100483.34;5104578;28;19920;-83
2022/03/25 15:53:12;;;;;;;;;;;;;;;2.36;89.73;100485.94;5103927;28;19980;-82
2022/03/25 15:55:37;;;;;;;;;;;;;;;2.29;89.55;100485.06;5104248;28;19927;-83
2022/03/25 15:58:03;;;;;;;;;;;;;;;2.27;89.28;100489.44;5104833;28;19923;-83
2022/03/25 16:00:30;;;;;;;;;;;;;;;2.29;89.19;100482.44;5102257;28;19924;-83
2022/03/25 16:02:56;;;;;;;;;;;;;;;2.26;89.18;100486.81;5104413;28;19924;-82
2022/03/25 16:05:21;;;;;;;;;;;;;;;2.27;88.94;100489.44;5103697;28;19969;-83
2022/03/25 16:07:47;;;;;;;;;;;;;;;2.23;88.97;100487.66;5102566;28;19916;-83
2022/03/25 16:10:12;;;;;;;;;;;;;;;2.20;88.73;100487.66;5102115;28;20276;-82
2022/03/25 16:12:38;;;;;;;;;;;;;;;2.24;88.84;100494.66;5102968;28;19963;-82
2022/03/25 16:15:04;;;;;;;;;;;;;;;2.19;88.41;100488.53;5100419;28;19919;-83
2022/03/25 16:17:29;;;;;;;;;;;;;;;2.17;88.27;100485.03;5102822;28;19916;-83
2022/03/25 16:19:55;;;;;;;;;;;;;;;2.15;88.43;100489.38;5101714;28;20311;-83
2022/03/25 16:22:20;;;;;;;;;;;;;;;2.15;88.20;100497.22;5102066;28;20028;-83
2022/03/25 16:24:47;;;;;;;;;;;;;;;2.11;87.91;100492.88;5101558;28;19923;-83
2022/03/25 16:27:16;;;;;;;;;;;;;;;2.18;87.90;100495.50;5101736;28;19928;-83
2022/03/25 16:29:42;;;;;;;;;;;;;;;2.15;87.36;100505.06;5100437;28;19987;-83
2022/03/25 16:32:08;;;;;;;;;;;;;;;2.12;87.07;100499.84;5096411;28;20084;-83
2022/03/25 16:34:34;;;;;;;;;;;;;;;2.14;87.15;100505.97;5100664;28;19920;-83
2022/03/25 16:37:00;;;;;;;;;;;;;;;2.14;86.67;100498.13;5099370;28;19924;-81
2022/03/25 16:39:25;;;;;;;;;;;;;;;2.04;86.66;100505.03;5101233;28;19924;-81
2022/03/25 16:41:52;;;;;;;;;;;;;;;2.12;86.61;100503.34;5100722;28;19928;-81
2022/03/25 16:44:18;;;;;;;;;;;;;;;2.07;86.52;100512.03;5100467;28;20501;-81
2022/03/25 16:46:43;;;;;;;;;;;;;;;2.00;86.58;100496.31;5101760;28;19923;-81
2022/03/25 16:49:09;;;;;;;;;;;;;;;1.99;86.42;100505.06;5100863;28;19928;-81
2022/03/25 16:51:34;;;;;;;;;;;;;;;2.03;86.46;100503.31;5099982;28;19927;-81
2022/03/25 16:54:00;;;;;;;;;;;;;;;2.05;86.42;100508.53;5100484;28;19946;-81
2022/03/25 16:56:26;;;;;;;;;;;;;;;2.03;86.25;100505.94;5101762;28;19924;-81
2022/03/25 16:58:51;;;;;;;;;;;;;;;2.01;86.08;100502.44;5100551;28;19923;-81
2022/03/25 17:01:17;;;;;;;;;;;;;;;2.00;85.87;100504.16;5098957;28;19927;-81
2022/03/25 17:03:48;;;;;;;;;;;;;;;2.04;85.71;100509.41;5101778;28;19949;-81
2022/03/25 17:06:14;;;;;;;;;;;;;;;1.98;85.50;100510.28;5099461;28;19928;-81
2022/03/25 17:08:39;;;;;;;;;;;;;;;2.00;85.57;100506.78;5101070;28;19930;-80
2022/03/25 17:11:04;;;;;;;;;;;;;;;1.98;85.42;100508.53;5100149;28;19927;-81
2022/03/25 17:13:29;;;;;;;;;;;;;;;2.00;85.28;100514.63;5098529;28;19924;-80
2022/03/25 17:15:55;;;;;;;;;;;;;;;2.02;85.07;100519.00;5099806;28;19924;-81
2022/03/25 17:18:20;;;;;;;;;;;;;;;1.97;85.12;100524.19;5100334;28;19931;-81
2022/03/25 17:20:45;;;;;;;;;;;;;;;1.97;85.17;100516.34;5101528;28;20417;-81
2022/03/25 17:23:11;;;;;;;;;;;;;;;1.94;84.94;100524.19;5098447;28;20382;-81
2022/03/25 17:25:36;;;;;;;;;;;;;;;1.93;84.99;100523.31;5101732;28;19920;-81
2022/03/25 17:28:02;;;;;;;;;;;;;;;1.98;85.01;100523.34;5101059;28;20302;-81
2022/03/25 17:30:27;;;;;;;;;;;;;;;1.93;84.94;100519.81;5098156;28;19964;-81
2022/03/25 17:32:53;;;;;;;;;;;;;;;1.92;85.05;100524.19;5095783;28;20010;-80
2022/03/25 17:35:19;;;;;;;;;;;;;;;1.92;85.32;100524.19;5100805;28;20385;-81
2022/03/25 17:37:44;;;;;;;;;;;;;;;1.95;85.35;100526.81;5102232;28;20037;-81
2022/03/25 17:40:09;;;;;;;;;;;;;;;1.93;85.33;100525.94;5098107;28;19928;-81
2022/03/25 17:42:35;;;;;;;;;;;;;;;1.92;85.17;100529.41;5102151;28;19919;-81
2022/03/25 17:45:00;;;;;;;;;;;;;;;1.94;85.13;100534.63;5100049;28;19912;-81
2022/03/25 17:47:25;;;;;;;;;;;;;;;1.89;84.88;100528.53;5099119;28;20370;-81
2022/03/25 17:49:51;;;;;;;;;;;;;;;1.89;85.06;100532.00;5116568;27;19999;-81
2022/03/25 17:52:16;;;;;;;;;;;;;;;1.90;85.04;100535.47;5098982;28;20022;-81
2022/03/25 17:54:41;;;;;;;;;;;;;;;1.89;85.33;100539.84;5083299;28;20393;-81
2022/03/25 17:57:07;;;;;;;;;;;;;;;1.91;85.55;100542.47;5100754;28;20454;-81
2022/03/25 17:59:32;;;;;;;;;;;;;;;1.95;85.67;100545.09;5096369;28;19924;-81
2022/03/25 18:01:58;;;;;;;;;;;;;;;1.93;85.61;100540.72;5101764;28;20259;-81
2022/03/25 18:04:23;;;;;;;;;;;;;;;1.96;85.87;100549.47;5100090;28;19992;-81
2022/03/25 18:06:49;;;;;;;;;;;;;;;1.91;85.07;100553.78;5100908;28;20003;-81
2022/03/25 18:09:14;;;;;;;;;;;;;;;1.92;85.26;100549.44;5098654;28;19924;-81
2022/03/25 18:11:40;;;;;;;;;;;;;;;1.94;85.34;100556.41;5100804;28;19919;-81
2022/03/25 18:14:05;;;;;;;;;;;;;;;1.91;85.19;100556.41;5101976;27;19971;-81
2022/03/25 18:16:32;;;;;;;;;;;;;;;1.92;85.00;100555.53;5095942;28;20363;-81
2022/03/25 18:18:57;;;;;;;;;;;;;;;1.92;84.75;100560.75;5100956;28;19916;-82
2022/03/25 18:21:22;;;;;;;;;;;;;;;1.93;84.59;100559.00;5095924;28;20424;-81
2022/03/25 18:23:47;;;;;;;;;;;;;;;1.91;84.29;100559.00;5100258;28;20263;-82
2022/03/25 18:26:13;;;;;;;;;;;;;;;1.90;84.30;100565.13;5099267;28;19920;-81
2022/03/25 18:28:38;;;;;;;;;;;;;;;1.90;84.13;100562.50;5101566;28;19920;-81
2022/03/25 18:31:04;;;;;;;;;;;;;;;1.92;84.24;100566.00;5114447;27;19920;-81
2022/03/25 18:33:31;;;;;;;;;;;;;;;1.88;84.20;100564.22;5099875;28;19932;-81
2022/03/25 18:35:56;;;;;;;;;;;;;;;1.90;84.26;100572.97;5100113;28;19928;-81
2022/03/25 18:38:21;;;;;;;;;;;;;;;1.92;84.13;100571.22;5105686;28;19988;-80
2022/03/25 18:40:47;;;;;;;;;;;;;;;1.89;84.21;100576.44;5104068;28;19930;-81
2022/03/25 18:43:14;;;;;;;;;;;;;;;1.95;84.38;100575.59;5105460;28;20327;-81
2022/03/25 18:45:40;;;;;;;;;;;;;;;1.92;84.08;100576.44;5102595;28;19919;-81
2022/03/25 18:48:06;;;;;;;;;;;;;;;1.91;84.24;100574.69;5104413;28;19916;-81
2022/03/25 18:50:32;;;;;;;;;;;;;;;1.96;84.14;100579.94;5099707;28;19920;-81
2022/03/25 18:52:57;;;;;;;;;;;;;;;1.97;84.07;100581.72;5103881;28;19920;-81
2022/03/25 18:55:23;;;;;;;;;;;;;;;1.97;83.96;100585.19;5104162;28;19915;-81
2022/03/25 18:57:52;;;;;;;;;;;;;;;1.95;83.97;100584.31;5103240;27;19971;-81
2022/03/25 19:00:18;;;;;;;;;;;;;;;1.95;83.69;100583.44;5103655;28;20018;-82
2022/03/25 19:02:43;;;;;;;;;;;;;;;1.94;83.61;100584.31;5101139;28;20038;-81
2022/03/25 19:05:09;;;;;;;;;;;;;;;1.95;83.49;100583.44;5102483;28;20688;-81
2022/03/25 19:07:34;;;;;;;;;;;;;;;1.97;83.51;100586.94;5103610;28;20335;-80
2022/03/25 19:09:59;;;;;;;;;;;;;;;1.96;83.39;100593.00;5104135;28;19930;-81
2022/03/25 19:12:24;;;;;;;;;;;;;;;1.96;83.25;100591.28;5103377;28;19922;-81
2022/03/25 19:14:50;;;;;;;;;;;;;;;1.97;83.25;100587.78;5101416;28;20397;-81
2022/03/25 19:17:15;;;;;;;;;;;;;;;2.01;83.10;100596.56;5103308;28;19920;-79
2022/03/25 19:19:41;;;;;;;;;;;;;;;2.02;82.93;100600.03;5101596;28;19970;-81
2022/03/25 19:22:08;;;;;;;;;;;;;;;2.02;82.93;100602.66;5105156;28;19978;-81
2022/03/25 19:24:33;;;;;;;;;;;;;;;1.99;82.76;100595.66;5099296;28;20360;-81
2022/03/25 19:26:59;;;;;;;;;;;;;;;2.02;82.78;100597.41;5102939;28;20003;-81
2022/03/25 19:29:24;;;;;;;;;;;;;;;2.03;82.60;100599.16;5100722;28;19959;-81
2022/03/25 19:31:51;;;;;;;;;;;;;;;2.02;82.57;100600.03;5102768;28;20035;-81
2022/03/25 19:34:17;;;;;;;;;;;;;;;2.05;82.53;100605.28;5100132;28;19920;-82
2022/03/25 19:36:43;;;;;;;;;;;;;;;2.05;82.42;100605.28;5104851;28;19945;-81
2022/03/25 19:39:08;;;;;;;;;;;;;;;2.10;82.16;100600.94;5104005;28;19955;-80
2022/03/25 19:41:34;;;;;;;;;;;;;;;2.10;81.94;100598.31;5101183;28;19924;-81
2022/03/25 19:44:01;;;;;;;;;;;;;;;2.09;81.90;100599.19;5102451;28;20324;-81
2022/03/25 19:46:27;;;;;;;;;;;;;;;2.11;81.94;100602.69;5101620;28;20383;-81
2022/03/25 19:48:52;;;;;;;;;;;;;;;2.13;81.88;100604.44;5104014;28;19920;-81
2022/03/25 19:51:18;;;;;;;;;;;;;;;2.15;82.21;100601.81;5102201;28;19927;-81
2022/03/25 19:53:43;;;;;;;;;;;;;;;2.17;82.11;100607.94;5102167;28;20056;-81
2022/03/25 19:56:09;;;;;;;;;;;;;;;2.17;82.10;100610.53;5104515;28;19923;-80
2022/03/25 19:58:34;;;;;;;;;;;;;;;2.18;82.10;100609.69;5103331;28;19925;-81
2022/03/25 20:01:00;;;;;;;;;;;;;;;2.20;81.95;100612.31;5102331;28;19942;-81
2022/03/25 20:03:25;;;;;;;;;;;;;;;2.22;81.90;100614.06;5098986;28;19947;-83
2022/03/25 20:05:51;;;;;;;;;;;;;;;2.24;81.95;100614.94;5102508;28;20008;-81
2022/03/25 20:08:16;;;;;;;;;;;;;;;2.29;81.83;100613.22;5103793;28;19923;-81
2022/03/25 20:10:41;;;;;;;;;;;;;;;2.24;81.57;100612.34;5091719;28;19959;-81
2022/03/25 20:13:10;;;;;;;;;;;;;;;2.30;81.59;100614.97;5097040;28;19928;-81
2022/03/25 20:15:35;;;;;;;;;;;;;;;2.32;81.48;100607.13;5100515;28;19968;-81
2022/03/25 20:18:00;;;;;;;;;;;;;;;2.31;81.18;100619.34;5101769;28;19928;-81
2022/03/25 20:20:25;;;;;;;;;;;;;;;2.30;81.20;100622.81;5102552;28;20392;-82
2022/03/25 20:22:51;;;;;;;;;;;;;;;2.34;81.17;100621.94;5102566;28;20016;-81
2022/03/25 20:25:16;;;;;;;;;;;;;;;2.34;81.11;100631.56;5101806;28;19926;-81
2022/03/25 20:27:41;;;;;;;;;;;;;;;2.34;81.25;100621.94;5102329;28;19963;-82
2022/03/25 20:30:07;;;;;;;;;;;;;;;2.31;81.11;100629.81;5101061;28;19919;-82
2022/03/25 20:32:33;;;;;;;;;;;;;;;2.32;80.89;100630.69;5101898;28;19920;-81
2022/03/25 20:34:58;;;;;;;;;;;;;;;2.34;80.76;100637.66;5102047;27;19923;-81
2022/03/25 20:37:25;;;;;;;;;;;;;;;2.32;80.48;100638.53;5101392;28;19919;-82
2022/03/25 20:39:51;;;;;;;;;;;;;;;2.33;80.21;100635.91;5101647;28;20275;-81
2022/03/25 20:42:16;;;;;;;;;;;;;;;2.35;79.86;100646.38;5098101;28;19934;-81
2022/03/25 20:44:42;;;;;;;;;;;;;;;2.36;79.36;100651.63;5098228;28;20030;-81
2022/03/25 20:47:08;;;;;;;;;;;;;;;2.38;78.91;100653.34;5102483;28;19974;-81
2022/03/25 20:49:34;;;;;;;;;;;;;;;2.35;78.73;100649.88;5100267;28;19920;-80
2022/03/25 20:52:00;;;;;;;;;;;;;;;2.36;78.61;100649.00;5102900;28;19924;-81
2022/03/25 20:54:25;;;;;;;;;;;;;;;2.35;78.33;100655.09;5101383;28;19998;-81
2022/03/25 20:56:51;;;;;;;;;;;;;;;2.36;78.13;100654.25;5096014;28;19954;-81
2022/03/25 20:59:16;;;;;;;;;;;;;;;2.34;78.06;100653.34;5100733;28;19924;-82
2022/03/25 21:01:42;;;;;;;;;;;;;;;2.36;77.83;100655.97;5099522;28;20433;-81
2022/03/25 21:04:07;;;;;;;;;;;;;;;2.38;77.79;100661.19;5102284;28;20394;-81
2022/03/25 21:06:33;;;;;;;;;;;;;;;2.41;77.91;100659.50;5099218;28;19943;-82
2022/03/25 21:08:58;;;;;;;;;;;;;;;2.41;78.15;100659.50;5102346;28;19953;-83
2022/03/25 21:11:24;;;;;;;;;;;;;;;2.42;78.33;100656.00;5116916;27;19920;-83
2022/03/25 21:13:50;;;;;;;;;;;;;;;3.03;79.01;100657.06;5101602;28;19920;-83
2022/03/25 21:16:15;;;;;;;;;;;;;;;2.99;79.00;100658.81;5099412;28;19916;-83
2022/03/25 21:18:41;;;;;;;;;;;;;;;3.16;79.50;100657.94;5096650;28;19931;-81
2022/03/25 21:21:06;;;;;;;;;;;;;;;2.94;79.67;100659.69;5102089;28;19916;-82
2022/03/25 21:23:31;;;;;;;;;;;;;;;2.84;79.61;100667.50;5100807;28;20293;-81
2022/03/25 21:25:56;;;;;;;;;;;;;;;2.81;79.34;100658.75;5099207;28;19920;-81
2022/03/25 21:28:22;;;;;;;;;;;;;;;2.80;79.03;100664.88;5097924;28;19933;-81
2022/03/25 21:30:48;;;;;;;;;;;;;;;2.76;78.61;100665.72;5096745;28;20389;-81
2022/03/25 21:33:14;;;;;;;;;;;;;;;2.76;78.39;100665.72;5100138;28;19961;-81
2022/03/25 21:35:39;;;;;;;;;;;;;;;2.78;77.89;100669.22;5097989;28;19924;-81
2022/03/25 21:38:08;;;;;;;;;;;;;;;2.76;77.61;100670.94;5099231;28;20268;-81
2022/03/25 21:40:38;;;;;;;;;;;;;;;2.75;77.39;100670.09;5102017;28;19916;-83
2022/03/25 21:43:04;;;;;;;;;;;;;;;2.77;77.29;100675.31;5100113;28;20355;-81
2022/03/25 21:45:29;;;;;;;;;;;;;;;2.76;77.22;100682.31;5100988;28;19920;-82
2022/03/25 21:47:56;;;;;;;;;;;;;;;2.79;77.25;100674.44;5100217;28;19924;-82
2022/03/25 21:50:21;;;;;;;;;;;;;;;3.23;77.22;100678.91;5101108;28;19972;-84
2022/03/25 21:52:46;;;;;;;;;;;;;;;2.96;77.56;100674.50;5098816;28;20006;-84
2022/03/25 21:55:12;;;;;;;;;;;;;;;2.89;77.80;100676.25;5099454;28;20016;-84
2022/03/25 21:57:37;;;;;;;;;;;;;;;2.88;77.76;100676.22;5100188;28;19919;-85
2022/03/25 22:00:03;;;;;;;;;;;;;;;2.90;77.92;100680.63;5099085;28;20387;-83
2022/03/25 22:02:28;;;;;;;;;;;;;;;2.89;78.01;100683.22;5097643;28;19928;-83
2022/03/25 22:04:53;;;;;;;;;;;;;;;2.90;78.12;100682.34;5099492;28;19920;-83
2022/03/25 22:07:19;;;;;;;;;;;;;;;2.90;77.72;100674.47;5097934;28;20003;-83